createdAt,value
2022-10-11T00:02:00.491Z,5.75
2022-10-11T00:04:28.274Z,6.25
2022-10-11T00:06:56.025Z,5.97
2022-10-11T00:09:23.879Z,6.47
2022-10-11T00:11:51.479Z,6.20
2022-10-11T00:14:19.081Z,6.13
2022-10-11T00:16:46.642Z,6.63
2022-10-11T00:19:19.909Z,7.63
2022-10-11T00:21:48.344Z,6.53
2022-10-11T00:24:17.098Z,6.43
2022-10-11T00:26:47.032Z,6.53
2022-10-11T00:29:15.790Z,6.28
2022-10-11T00:31:43.340Z,6.82
2022-10-11T00:34:12.588Z,6.30
2022-10-11T00:36:42.093Z,7.32
2022-10-11T00:39:09.595Z,6.82
2022-10-11T00:41:37.625Z,5.70
2022-10-11T00:44:09.336Z,6.90
2022-10-11T00:46:37.117Z,7.07
2022-10-11T00:49:06.507Z,7.50
2022-10-11T00:51:40.368Z,6.13
2022-10-11T00:54:12.639Z,6.43
2022-10-11T00:56:41.786Z,6.75
2022-10-11T00:59:11.864Z,6.57
2022-10-11T01:01:39.484Z,6.55
2022-10-11T01:04:07.074Z,6.82
2022-10-11T01:06:34.895Z,6.88
2022-10-11T01:09:02.456Z,6.97
2022-10-11T01:11:32.029Z,7.30
2022-10-11T01:14:07.593Z,7.20
2022-10-11T01:16:36.788Z,7.53
2022-10-11T01:19:11.005Z,7.97
2022-10-11T01:21:42.808Z,9.40
2022-10-11T01:24:34.299Z,9.32
2022-10-11T01:27:20.822Z,9.13
2022-10-11T01:29:54.373Z,8.00
2022-10-11T01:32:27.468Z,7.93
2022-10-11T01:34:57.625Z,7.25
2022-10-11T01:37:28.302Z,8.35
2022-10-11T01:39:58.770Z,8.13
2022-10-11T01:42:27.261Z,7.97
2022-10-11T01:44:55.354Z,7.95
2022-10-11T01:47:24.981Z,8.43
2022-10-11T01:49:59.855Z,8.60
2022-10-11T01:52:28.484Z,8.10
2022-10-11T01:55:09.771Z,9.95
2022-10-11T01:57:58.549Z,9.32
2022-10-11T02:00:27.126Z,8.52
2022-10-11T02:03:04.971Z,8.45
2022-10-11T02:05:37.132Z,7.70
2022-10-11T02:08:07.990Z,7.55
2022-10-11T02:10:38.052Z,8.00
2022-10-11T02:13:09.309Z,8.85
2022-10-11T02:15:38.393Z,7.35
2022-10-11T02:18:08.578Z,9.00
2022-10-11T02:20:38.429Z,9.00
2022-10-11T02:23:08.701Z,9.45
2022-10-11T02:25:37.190Z,8.98
2022-10-11T02:28:09.229Z,9.07
2022-10-11T02:30:37.234Z,9.10
2022-10-11T02:33:06.679Z,8.65
2022-10-11T02:35:37.957Z,8.00
2022-10-11T02:38:10.489Z,9.30
2022-10-11T02:40:39.871Z,10.50
2022-10-11T02:43:10.020Z,9.20
2022-10-11T02:45:40.230Z,8.95
2022-10-11T02:48:08.183Z,11.27
2022-10-11T02:50:38.161Z,12.02
2022-10-11T02:53:05.835Z,10.48
2022-10-11T02:55:33.632Z,12.07
2022-10-11T02:58:08.494Z,10.85
2022-10-11T03:00:36.076Z,10.88
2022-10-11T03:03:03.671Z,10.73
2022-10-11T03:05:31.207Z,10.18
2022-10-11T03:08:00.181Z,11.35
2022-10-11T03:10:27.640Z,11.70
2022-10-11T03:12:55.132Z,11.10
2022-10-11T03:15:22.583Z,10.82
2022-10-11T03:17:50.228Z,11.60
2022-10-11T03:20:17.754Z,12.57
2022-10-11T03:22:45.282Z,11.98
2022-10-11T03:25:14.159Z,11.73
2022-10-11T03:27:41.636Z,13.30
2022-10-11T03:30:10.015Z,13.15
2022-10-11T03:32:37.868Z,12.48
2022-10-11T03:35:05.801Z,13.52
2022-10-11T03:37:33.305Z,12.25
2022-10-11T03:40:01.246Z,12.35
2022-10-11T03:42:30.403Z,13.57
2022-10-11T03:44:59.806Z,12.98
2022-10-11T03:47:27.374Z,15.07
2022-10-11T03:49:54.864Z,13.57
2022-10-11T03:52:22.626Z,15.50
2022-10-11T03:54:50.141Z,17.02
2022-10-11T03:57:17.618Z,15.60
2022-10-11T03:59:46.530Z,15.88
2022-10-11T04:02:14.126Z,17.70
2022-10-11T04:04:41.730Z,17.70
2022-10-11T04:07:09.552Z,16.98
2022-10-11T04:09:37.135Z,17.85
2022-10-11T04:12:06.151Z,18.10
2022-10-11T04:14:33.685Z,18.75
2022-10-11T04:17:02.613Z,18.63
2022-10-11T04:19:33.112Z,18.73
2022-10-11T04:22:00.605Z,18.42
2022-10-11T04:24:28.323Z,19.02
2022-10-11T04:26:55.870Z,17.55
2022-10-11T04:29:23.686Z,17.80
2022-10-11T04:31:52.483Z,17.52
2022-10-11T04:34:26.335Z,18.00
2022-10-11T04:36:53.926Z,18.45
2022-10-11T04:39:21.455Z,18.92
2022-10-11T04:41:48.971Z,17.02
2022-10-11T04:44:16.527Z,18.73
2022-10-11T04:46:44.024Z,17.83
2022-10-11T04:49:11.514Z,20.48
2022-10-11T04:51:44.958Z,18.65
2022-10-11T04:54:12.458Z,18.92
2022-10-11T05:44:10.503Z,26.20
2022-10-11T05:47:33.043Z,28.17
2022-10-11T05:50:06.469Z,28.77
2022-10-11T05:52:38.367Z,29.80
2022-10-11T05:55:06.209Z,29.02
2022-10-11T05:57:37.330Z,30.20
2022-10-11T06:00:05.275Z,30.02
2022-10-11T06:02:34.336Z,28.90
2022-10-11T06:05:03.318Z,28.77
2022-10-11T06:07:30.896Z,29.30
2022-10-11T06:09:58.437Z,29.50
2022-10-11T06:12:26.110Z,26.77
2022-10-11T06:14:57.797Z,28.27
2022-10-11T06:17:25.575Z,27.02
2022-10-11T06:19:53.077Z,29.27
2022-10-11T06:22:22.301Z,27.67
2022-10-11T06:24:50.151Z,26.50
2022-10-11T06:27:17.706Z,27.02
2022-10-11T06:29:45.430Z,27.65
2022-10-11T06:32:13.602Z,27.40
2022-10-11T06:34:41.193Z,28.60
2022-10-11T06:37:08.934Z,28.25
2022-10-11T06:39:37.819Z,29.02
2022-10-11T06:42:05.338Z,28.35
2022-10-11T06:44:32.847Z,27.95
2022-10-11T06:47:00.395Z,27.63
2022-10-11T06:49:27.881Z,27.10
2022-10-11T06:51:55.448Z,27.50
2022-10-11T06:54:23.079Z,28.15
2022-10-11T06:56:55.059Z,24.98
2022-10-11T06:59:22.754Z,25.73
2022-10-11T07:01:50.311Z,26.55
2022-10-11T07:04:17.851Z,24.13
2022-10-11T07:06:45.362Z,25.38
2022-10-11T07:09:12.821Z,25.02
2022-10-11T07:11:40.640Z,24.02
2022-10-11T07:14:10.612Z,24.08
2022-10-11T07:16:38.763Z,23.73
2022-10-11T07:19:06.852Z,23.95
2022-10-11T07:21:35.421Z,21.65
2022-10-11T07:24:03.245Z,23.20
2022-10-11T07:26:37.638Z,22.80
2022-10-11T07:29:07.073Z,19.48
2022-10-11T07:31:37.212Z,22.98
2022-10-11T07:34:04.727Z,20.23
2022-10-11T07:36:32.268Z,21.17
2022-10-11T07:39:00.158Z,22.17
2022-10-11T07:41:27.986Z,22.02
2022-10-11T07:43:55.632Z,22.02
2022-10-11T07:46:23.370Z,21.58
2022-10-11T07:48:52.212Z,21.55
2022-10-11T07:51:20.608Z,21.73
2022-10-11T07:53:49.298Z,22.08
2022-10-11T07:56:17.831Z,21.52
2022-10-11T07:58:48.762Z,21.75
2022-10-11T08:01:16.374Z,22.15
2022-10-11T08:03:43.928Z,22.00
2022-10-11T08:06:14.802Z,23.63
2022-10-11T08:08:42.583Z,22.48
2022-10-11T08:11:10.153Z,21.92
2022-10-11T08:13:37.765Z,21.02
2022-10-11T08:16:10.573Z,19.45
2022-10-11T08:18:38.481Z,20.33
2022-10-11T08:21:09.558Z,20.23
2022-10-11T08:23:39.161Z,18.92
2022-10-11T08:26:07.637Z,19.90
2022-10-11T08:28:35.465Z,17.27
2022-10-11T08:31:03.124Z,16.65
2022-10-11T08:33:31.015Z,18.25
2022-10-11T08:35:58.622Z,17.23
2022-10-11T08:38:29.332Z,17.75
2022-10-11T08:40:59.453Z,18.83
2022-10-11T08:43:32.021Z,17.98
2022-10-11T08:46:01.027Z,17.95
2022-10-11T08:48:33.632Z,18.17
2022-10-11T08:51:01.938Z,17.23
2022-10-11T08:53:42.247Z,18.02
2022-10-11T08:56:12.884Z,16.60
2022-10-11T08:58:42.213Z,17.40
2022-10-11T09:01:15.271Z,16.15
2022-10-11T09:03:43.656Z,15.90
2022-10-11T09:06:15.449Z,15.68
2022-10-11T09:08:47.979Z,16.90
2022-10-11T09:11:21.240Z,15.50
2022-10-11T09:14:03.153Z,14.57
2022-10-11T09:16:36.503Z,16.15
2022-10-11T09:19:16.685Z,15.82
2022-10-11T09:21:47.931Z,15.20
2022-10-11T09:24:38.163Z,14.80
2022-10-11T09:27:12.471Z,14.63
2022-10-11T09:29:49.251Z,14.13
2022-10-11T09:32:17.940Z,13.82
2022-10-11T09:34:45.328Z,13.10
2022-10-11T09:37:23.490Z,14.10
2022-10-11T09:39:56.522Z,14.45
2022-10-11T09:42:49.082Z,14.98
2022-10-11T09:45:50.162Z,15.77
2022-10-11T09:48:23.496Z,14.73
2022-10-11T09:50:53.733Z,14.93
2022-10-11T09:53:50.598Z,13.65
2022-10-11T09:56:31.988Z,13.65
2022-10-11T09:59:10.501Z,16.23
2022-10-11T10:01:41.000Z,14.70
2022-10-11T10:04:27.641Z,14.23
2022-10-11T10:07:19.220Z,13.68
2022-10-11T10:10:03.089Z,14.13
2022-10-11T10:12:39.181Z,13.93
2022-10-11T10:15:27.852Z,14.20
2022-10-11T10:21:02.996Z,13.40
2022-10-11T10:23:31.566Z,13.05
2022-10-11T10:26:17.016Z,11.98
2022-10-11T10:29:02.325Z,11.88
2022-10-11T10:31:49.436Z,12.73
2022-10-11T10:34:26.486Z,13.25
2022-10-11T10:36:57.433Z,13.52
2022-10-11T10:39:27.226Z,13.15
2022-10-11T10:41:55.210Z,11.82
2022-10-11T10:44:22.738Z,11.43
2022-10-11T10:46:55.703Z,10.90
2022-10-11T10:49:52.455Z,10.82
2022-10-11T10:52:34.065Z,11.00
2022-10-11T10:55:05.672Z,10.57
2022-10-11T10:57:38.692Z,11.02
2022-10-11T11:00:12.223Z,11.45
2022-10-11T11:02:47.396Z,11.48
2022-10-11T11:05:21.278Z,10.27
2022-10-11T11:07:52.784Z,10.75
2022-10-11T11:10:21.957Z,9.55
2022-10-11T11:12:53.985Z,8.95
2022-10-11T11:15:31.315Z,9.65
2022-10-11T11:18:07.960Z,8.90
2022-10-11T11:20:40.198Z,9.18
2022-10-11T11:23:15.133Z,9.18
2022-10-11T11:25:45.149Z,9.45
2022-10-11T11:28:33.039Z,9.15
2022-10-11T11:31:05.246Z,8.20
2022-10-11T11:33:44.049Z,9.13
2022-10-11T11:36:17.350Z,9.02
2022-10-11T11:38:49.425Z,9.20
2022-10-11T11:41:20.278Z,10.38
2022-10-11T11:43:54.554Z,9.23
2022-10-11T11:46:25.122Z,8.80
2022-10-11T11:48:53.704Z,8.10
2022-10-11T11:51:22.463Z,7.90
2022-10-11T11:53:54.618Z,7.38
2022-10-11T11:56:31.284Z,7.68
2022-10-11T11:59:03.988Z,7.93
2022-10-11T12:01:34.560Z,7.50
2022-10-11T12:04:04.194Z,7.22
2022-10-11T12:06:33.052Z,6.65
2022-10-11T12:09:04.156Z,7.82
2022-10-11T12:11:40.834Z,8.13
2022-10-11T12:14:19.715Z,7.82
2022-10-11T12:17:05.756Z,8.32
2022-10-11T12:19:33.291Z,8.07
2022-10-11T12:22:15.681Z,7.88
2022-10-11T12:24:55.370Z,8.23
2022-10-11T12:27:39.230Z,6.88
2022-10-11T12:30:27.160Z,7.05
2022-10-11T12:33:04.084Z,7.07
2022-10-11T12:36:05.635Z,7.82
2022-10-11T12:38:37.795Z,6.82
2022-10-11T12:41:20.349Z,7.20
2022-10-11T12:44:06.633Z,7.38
2022-10-11T12:46:45.369Z,7.43
2022-10-11T12:49:33.255Z,7.18
2022-10-11T12:52:02.751Z,7.07
2022-10-11T12:54:47.311Z,6.85
2022-10-11T12:57:28.412Z,7.18
2022-10-11T12:59:56.310Z,6.35
2022-10-11T13:02:29.034Z,7.15
2022-10-11T13:05:09.717Z,6.78
2022-10-11T13:07:37.303Z,6.85
2022-10-11T13:10:06.174Z,7.10
2022-10-11T13:12:37.623Z,6.68
2022-10-11T13:15:09.715Z,5.88
2022-10-11T13:17:39.518Z,6.85
2022-10-11T13:20:10.566Z,6.68
2022-10-11T13:22:40.115Z,5.78
2022-10-11T13:25:08.330Z,5.97
2022-10-11T13:27:37.764Z,6.95
2022-10-11T13:30:09.125Z,6.25
2022-10-11T13:32:38.209Z,6.93
2022-10-11T13:35:06.627Z,6.82
2022-10-11T13:37:41.406Z,6.35
2022-10-11T13:40:13.866Z,6.57
2022-10-11T13:42:41.765Z,6.00
2022-10-11T13:45:12.236Z,6.18
2022-10-11T13:47:41.366Z,6.28
2022-10-11T13:50:11.225Z,5.43
2022-10-11T13:52:56.366Z,5.68
2022-10-11T13:55:25.659Z,5.95
2022-10-11T13:57:53.308Z,6.55
2022-10-11T14:00:25.714Z,6.68
2022-10-11T14:02:56.111Z,7.05
2022-10-11T14:05:26.549Z,6.43
2022-10-11T14:07:54.352Z,6.28
2022-10-11T14:10:22.617Z,5.88
2022-10-11T14:12:59.042Z,6.43
2022-10-11T14:15:28.759Z,5.75
2022-10-11T14:17:58.202Z,6.97
2022-10-11T14:20:32.321Z,7.43
2022-10-11T14:23:00.690Z,7.82
2022-10-11T14:25:28.451Z,7.70
2022-10-11T14:27:56.109Z,7.13
2022-10-11T14:30:26.458Z,6.82
2022-10-11T14:32:56.047Z,8.45
2022-10-11T14:35:26.154Z,7.35
2022-10-11T14:37:53.850Z,8.10
2022-10-11T14:40:22.355Z,8.02
2022-10-11T14:42:50.620Z,8.15
2022-10-11T14:45:18.606Z,7.75
2022-10-11T14:47:46.436Z,8.38
2022-10-11T14:50:33.001Z,8.43
2022-10-11T14:53:01.307Z,8.27
2022-10-11T14:55:29.037Z,8.05
2022-10-11T14:57:56.668Z,9.18
2022-10-11T15:00:25.293Z,9.15
2022-10-11T15:02:53.803Z,8.32
2022-10-11T15:05:21.621Z,7.88
2022-10-11T15:07:51.023Z,7.82
2022-10-11T15:10:35.320Z,8.10
2022-10-11T15:13:10.661Z,9.65
2022-10-11T15:15:40.841Z,8.98
2022-10-11T15:18:15.060Z,9.55
2022-10-11T15:20:43.538Z,8.85
2022-10-11T15:23:12.905Z,8.55
2022-10-11T15:25:46.598Z,8.32
2022-10-11T15:28:21.250Z,8.82
2022-10-11T15:30:52.038Z,8.65
2022-10-11T15:33:19.678Z,8.10
2022-10-11T15:35:49.291Z,8.50
2022-10-11T15:38:19.926Z,8.57
2022-10-11T15:41:00.276Z,8.95
2022-10-11T15:43:28.618Z,9.95
2022-10-11T15:46:24.939Z,9.63
2022-10-11T15:48:52.937Z,8.82
2022-10-11T15:51:22.193Z,8.45
2022-10-11T15:53:51.498Z,9.60
2022-10-11T15:56:19.748Z,8.98
2022-10-11T15:58:55.278Z,8.70
2022-10-11T16:01:33.930Z,9.35
2022-10-11T16:04:01.852Z,9.05
2022-10-11T16:07:30.811Z,8.75
2022-10-11T16:10:30.081Z,9.23
2022-10-11T16:13:13.768Z,10.20
2022-10-11T16:15:57.476Z,9.20
2022-10-11T16:18:39.340Z,10.18
2022-10-11T16:21:41.062Z,10.23
2022-10-11T16:24:14.585Z,10.65
2022-10-11T16:26:45.053Z,9.52
2022-10-11T16:29:14.044Z,9.95
2022-10-11T16:32:27.669Z,10.55
2022-10-11T16:35:14.777Z,9.63
2022-10-11T16:41:42.913Z,8.95
2022-10-11T16:45:13.692Z,10.10
2022-10-11T16:51:19.953Z,11.00
2022-10-11T17:00:04.322Z,9.88
2022-10-11T17:02:39.155Z,10.05
2022-10-11T17:05:09.101Z,9.60
2022-10-11T17:07:39.762Z,9.45
2022-10-11T17:10:57.898Z,9.75
2022-10-11T17:13:30.532Z,9.60
2022-10-11T17:15:59.584Z,10.27
2022-10-11T17:18:55.257Z,10.32
2022-10-11T17:21:55.064Z,10.38
2022-10-11T17:24:22.620Z,10.85
2022-10-11T17:26:53.747Z,9.52
2022-10-11T17:29:42.957Z,10.32
2022-10-11T17:32:13.350Z,9.75
2022-10-11T17:34:52.850Z,10.32
2022-10-11T17:37:21.490Z,9.75
2022-10-11T17:39:49.221Z,10.98
2022-10-11T17:42:19.733Z,10.40
2022-10-11T17:44:48.819Z,12.20
2022-10-11T17:47:19.568Z,12.07
2022-10-11T17:49:47.053Z,11.52
2022-10-11T17:52:17.468Z,11.48
2022-10-11T17:54:59.012Z,10.55
2022-10-11T17:57:26.784Z,12.88
2022-10-11T18:00:01.571Z,11.43
2022-10-11T18:02:32.659Z,11.35
2022-10-11T18:05:00.216Z,10.95
2022-10-11T18:07:27.707Z,12.45
2022-10-11T18:09:55.187Z,13.05
2022-10-11T18:12:50.131Z,13.48
2022-10-11T18:15:19.012Z,14.77
2022-10-11T18:17:50.244Z,13.48
2022-10-11T18:20:20.786Z,13.02
2022-10-11T18:23:29.899Z,12.70
2022-10-11T18:26:00.006Z,12.15
2022-10-11T18:28:27.569Z,14.05
2022-10-11T18:30:59.332Z,17.85
2022-10-11T18:33:29.313Z,19.65
2022-10-11T18:36:02.914Z,17.25
2022-10-11T18:41:39.456Z,13.05
2022-10-11T18:44:41.332Z,12.57
2022-10-11T18:47:18.750Z,12.57
2022-10-11T18:49:47.999Z,13.43
2022-10-11T18:52:21.133Z,13.18
2022-10-11T18:54:51.588Z,13.40
2022-10-11T18:57:21.645Z,12.38
2022-10-11T18:59:49.259Z,12.35
2022-10-11T19:02:21.913Z,20.02
2022-10-11T19:04:52.810Z,21.52
2022-10-11T19:07:24.707Z,19.35
2022-10-11T19:09:54.928Z,16.15
2022-10-11T19:12:32.076Z,13.60
2022-10-11T19:15:28.944Z,13.80
2022-10-11T19:17:58.044Z,13.30
2022-10-11T19:20:31.534Z,11.73
2022-10-11T19:23:08.081Z,13.55
2022-10-11T19:25:41.890Z,12.25
2022-10-11T19:28:22.914Z,12.35
2022-10-11T19:34:36.143Z,12.35
2022-10-11T19:40:22.234Z,11.30
2022-10-11T19:43:37.225Z,12.68
2022-10-11T19:46:49.763Z,12.15
2022-10-11T19:49:22.059Z,11.50
2022-10-11T19:51:58.898Z,13.32
2022-10-11T19:55:06.991Z,12.90
2022-10-11T20:04:46.970Z,13.15
2022-10-11T20:07:07.005Z,13.73
2022-10-11T20:09:34.651Z,13.80
2022-10-11T20:12:02.155Z,14.38
2022-10-11T20:14:29.783Z,14.50
2022-10-11T20:16:57.337Z,14.07
2022-10-11T20:19:30.526Z,12.98
2022-10-11T20:21:59.305Z,11.77
2022-10-11T20:24:29.013Z,11.35
2022-10-11T20:26:56.646Z,13.05
2022-10-11T20:29:24.581Z,11.48
2022-10-11T20:31:52.100Z,11.95
2022-10-11T20:34:19.575Z,12.23
2022-10-11T20:36:49.393Z,11.93
2022-10-11T20:39:17.808Z,12.82
2022-10-11T20:41:45.465Z,13.43
2022-10-11T20:44:16.015Z,13.13
2022-10-11T20:46:43.711Z,13.38
2022-10-11T20:49:12.226Z,13.95
2022-10-11T20:51:41.494Z,13.07
2022-10-11T20:54:10.687Z,14.27
2022-10-11T20:56:38.573Z,14.10
2022-10-11T20:59:06.705Z,13.68
2022-10-11T21:01:35.506Z,13.45
2022-10-11T21:04:03.547Z,13.38
2022-10-11T21:06:32.045Z,14.85
2022-10-11T21:08:59.954Z,14.23
2022-10-11T21:11:29.783Z,13.68
2022-10-11T21:13:57.894Z,15.07
2022-10-11T21:16:25.645Z,14.27
2022-10-11T21:18:53.570Z,13.85
2022-10-11T21:21:21.267Z,16.02
2022-10-11T21:23:48.901Z,13.30
2022-10-11T21:26:18.258Z,14.20
2022-10-11T21:28:47.330Z,15.18
2022-10-11T21:31:16.094Z,13.77
2022-10-11T21:33:44.614Z,14.23
2022-10-11T21:36:12.995Z,14.18
2022-10-11T21:38:40.749Z,13.43
2022-10-11T21:41:09.451Z,15.18
2022-10-11T21:43:38.294Z,13.52
2022-10-11T21:46:11.002Z,14.07
2022-10-11T21:48:38.665Z,13.85
2022-10-11T21:51:06.352Z,13.85
2022-10-11T21:53:35.401Z,14.32
2022-10-11T21:56:02.883Z,14.63
2022-10-11T21:58:30.470Z,15.15
2022-10-11T22:00:57.928Z,15.85
2022-10-11T22:03:26.767Z,14.25
2022-10-11T22:05:54.253Z,13.45
2022-10-11T22:08:21.773Z,14.00
2022-10-11T22:10:53.684Z,13.52
2022-10-11T22:13:21.622Z,13.23
2022-10-11T22:15:49.179Z,14.82
2022-10-11T22:18:16.661Z,13.00
2022-10-11T22:20:46.006Z,13.40
2022-10-11T22:23:13.545Z,14.23
2022-10-11T22:25:41.132Z,13.88
2022-10-11T22:28:08.799Z,14.35
2022-10-11T22:30:36.371Z,14.23
2022-10-11T22:33:03.904Z,13.88
2022-10-11T22:35:33.596Z,14.43
2022-10-11T22:38:04.557Z,13.82
2022-10-11T22:40:32.053Z,14.07
2022-10-11T22:42:59.527Z,13.95
2022-10-11T22:45:27.014Z,13.48
2022-10-11T22:47:54.580Z,14.20
2022-10-11T22:50:22.073Z,13.68
2022-10-11T22:52:49.576Z,14.05
2022-10-11T22:55:20.246Z,15.02
2022-10-11T22:57:47.964Z,13.52
2022-10-11T23:00:15.705Z,15.18
2022-10-11T23:02:43.236Z,13.40
2022-10-11T23:05:10.784Z,13.70
2022-10-11T23:07:38.548Z,14.43
2022-10-11T23:10:06.648Z,13.60
2022-10-11T23:12:35.656Z,15.00
2022-10-11T23:15:03.167Z,13.48
2022-10-11T23:17:30.649Z,13.15
2022-10-11T23:19:58.268Z,13.95
2022-10-11T23:22:25.736Z,13.00
2022-10-11T23:24:53.249Z,13.98
2022-10-11T23:27:20.847Z,14.13
2022-10-11T23:29:49.700Z,12.95
2022-10-11T23:32:17.169Z,12.82
2022-10-11T23:34:44.699Z,12.85
2022-10-11T23:37:12.187Z,13.50
2022-10-11T23:39:39.873Z,13.90
2022-10-11T23:42:07.403Z,14.40
2022-10-11T23:44:34.935Z,13.07
2022-10-11T23:47:03.821Z,13.93
2022-10-11T23:49:31.323Z,14.00
2022-10-11T23:51:58.803Z,13.32
2022-10-11T23:54:26.317Z,13.20
2022-10-11T23:56:53.794Z,13.63
2022-10-11T23:59:21.368Z,13.45
